TAF KPKB
AMD KPKB 082057Z 0821/0918 27006KT P6SM OVC015 FM090000 00000KT P6SM FEW090 FM091100 00000KT P6SM BKN250=
METAR KPKB
WC KPKB
WS KPKB
WV KPKB